createdAt,value
2023-04-15T00:00:59.721Z,24.62
2023-04-15T00:03:29.868Z,26.34
2023-04-15T00:05:58.693Z,24.60
2023-04-15T00:08:27.508Z,24.69
2023-04-15T00:10:56.421Z,25.58
2023-04-15T00:13:24.982Z,26.03
2023-04-15T00:15:53.438Z,25.28
2023-04-15T00:18:22.054Z,25.90
2023-04-15T00:20:50.471Z,25.05
2023-04-15T00:23:19.164Z,25.53
2023-04-15T00:25:47.647Z,26.14
2023-04-15T00:28:16.386Z,26.05
2023-04-15T00:30:45.874Z,25.11
2023-04-15T00:33:16.574Z,25.71
2023-04-15T00:35:45.203Z,24.83
2023-04-15T00:38:13.696Z,25.32
2023-04-15T00:40:42.714Z,24.65
2023-04-15T00:43:11.148Z,24.79
2023-04-15T00:45:39.537Z,25.44
2023-04-15T00:48:09.438Z,25.22
2023-04-15T00:50:37.850Z,25.34
2023-04-15T00:53:06.493Z,24.88
2023-04-15T00:55:36.262Z,25.11
2023-04-15T00:58:04.798Z,25.35
2023-04-15T01:00:33.232Z,25.88
2023-04-15T01:03:01.970Z,25.85
2023-04-15T01:05:31.469Z,25.84
2023-04-15T01:08:00.196Z,25.33
2023-04-15T01:10:28.601Z,25.88
2023-04-15T01:12:57.177Z,25.46
2023-04-15T01:15:25.819Z,25.08
2023-04-15T01:17:54.623Z,25.74
2023-04-15T01:20:23.508Z,26.34
2023-04-15T01:22:52.730Z,26.05
2023-04-15T01:25:47.820Z,26.27
2023-04-15T01:28:16.931Z,26.64
2023-04-15T01:30:45.586Z,24.28
2023-04-15T01:33:14.148Z,25.52
2023-04-15T01:35:44.292Z,24.97
2023-04-15T01:38:13.672Z,25.39
2023-04-15T01:40:42.173Z,24.73
2023-04-15T01:43:10.638Z,26.41
2023-04-15T01:45:39.123Z,25.66
2023-04-15T01:48:08.015Z,23.58
2023-04-15T01:50:38.070Z,24.11
2023-04-15T01:53:06.473Z,24.18
2023-04-15T01:55:34.963Z,25.20
2023-04-15T01:58:03.606Z,25.70
2023-04-15T02:00:32.583Z,26.43
2023-04-15T02:03:01.263Z,25.55
2023-04-15T02:05:29.919Z,26.04
2023-04-15T02:07:58.404Z,26.20
2023-04-15T02:10:27.411Z,25.90
2023-04-15T02:12:55.848Z,25.30
2023-04-15T02:15:24.280Z,25.56
2023-04-15T02:17:55.193Z,25.39
2023-04-15T02:20:23.827Z,24.07
2023-04-15T02:22:52.281Z,24.60
2023-04-15T02:25:20.984Z,24.47
2023-04-15T02:27:49.450Z,24.04
2023-04-15T02:30:18.085Z,22.92
2023-04-15T02:32:46.558Z,23.42
2023-04-15T02:35:14.983Z,23.56
2023-04-15T02:37:45.811Z,25.79
2023-04-15T02:40:14.593Z,26.44
2023-04-15T02:42:44.358Z,30.65
2023-04-15T02:45:12.932Z,27.10
2023-04-15T02:47:41.629Z,26.08
2023-04-15T02:50:12.642Z,29.43
2023-04-15T02:52:42.412Z,29.90
2023-04-15T02:55:10.880Z,26.71
2023-04-15T02:57:40.717Z,26.80
2023-04-15T03:00:11.537Z,27.83
2023-04-15T03:02:41.048Z,25.37
2023-04-15T03:05:14.249Z,26.69
2023-04-15T03:07:42.724Z,26.63
2023-04-15T03:10:15.709Z,28.53
2023-04-15T03:12:44.209Z,27.05
2023-04-15T03:15:12.775Z,26.62
2023-04-15T03:17:41.342Z,25.83
2023-04-15T03:20:10.415Z,25.60
2023-04-15T03:22:38.880Z,25.58
2023-04-15T03:25:07.718Z,28.54
2023-04-15T03:27:36.316Z,28.87
2023-04-15T03:30:05.176Z,27.24
2023-04-15T03:32:33.731Z,25.71
2023-04-15T03:35:02.274Z,29.16
2023-04-15T03:37:30.770Z,27.68
2023-04-15T03:39:59.201Z,28.34
2023-04-15T03:42:27.904Z,31.69
2023-04-15T03:44:56.487Z,29.35
2023-04-15T03:47:24.990Z,29.60
2023-04-15T03:49:53.448Z,29.51
2023-04-15T03:52:21.933Z,27.88
2023-04-15T03:54:50.292Z,31.23
2023-04-15T03:57:18.705Z,31.10
2023-04-15T03:59:47.091Z,28.86
2023-04-15T04:02:15.658Z,29.82
2023-04-15T04:04:44.351Z,29.97
2023-04-15T04:07:17.257Z,30.65
2023-04-15T04:09:47.137Z,30.74
2023-04-15T04:12:16.281Z,31.53
2023-04-15T04:14:44.902Z,29.53
2023-04-15T04:17:13.403Z,30.29
2023-04-15T04:19:42.057Z,30.77
2023-04-15T04:22:10.470Z,31.55
2023-04-15T04:24:38.953Z,32.28
2023-04-15T04:27:07.456Z,30.81
2023-04-15T04:29:36.096Z,31.72
2023-04-15T04:32:04.723Z,28.50
2023-04-15T04:34:33.165Z,29.93
2023-04-15T04:37:01.654Z,30.30
2023-04-15T04:39:30.188Z,31.64
2023-04-15T04:41:58.684Z,34.09
2023-04-15T04:44:27.475Z,32.64
2023-04-15T04:46:55.851Z,31.84
2023-04-15T04:49:24.273Z,29.98
2023-04-15T04:51:52.914Z,32.24
2023-04-15T04:54:21.375Z,31.52
2023-04-15T04:56:49.853Z,33.59
2023-04-15T04:59:19.484Z,33.68
2023-04-15T05:01:48.263Z,34.19
2023-04-15T05:04:17.032Z,34.61
2023-04-15T05:06:45.722Z,34.12
2023-04-15T05:09:14.241Z,34.17
2023-04-15T05:11:42.640Z,34.79
2023-04-15T05:14:11.146Z,34.56
2023-04-15T05:16:39.646Z,34.26
2023-04-15T05:19:08.225Z,36.04
2023-04-15T05:21:39.335Z,32.43
2023-04-15T05:24:08.040Z,32.36
2023-04-15T05:26:37.076Z,33.10
2023-04-15T05:29:05.703Z,31.61
2023-04-15T05:31:34.208Z,31.12
2023-04-15T05:34:03.393Z,32.65
2023-04-15T05:36:32.073Z,34.12
2023-04-15T05:39:00.952Z,31.62
2023-04-15T05:41:29.672Z,33.25
2023-04-15T05:43:58.216Z,35.55
2023-04-15T05:46:26.729Z,36.72
2023-04-15T05:48:56.487Z,31.89
2023-04-15T05:51:26.573Z,33.97
2023-04-15T05:53:55.004Z,33.97
2023-04-15T05:56:23.437Z,31.39
2023-04-15T05:58:53.746Z,32.74
2023-04-15T06:01:22.504Z,31.30
2023-04-15T06:03:51.668Z,32.09
2023-04-15T06:06:20.938Z,34.77
2023-04-15T06:08:49.426Z,33.05
2023-04-15T06:11:17.869Z,32.91
2023-04-15T06:13:46.381Z,32.60
2023-04-15T06:16:14.865Z,30.63
2023-04-15T06:18:43.439Z,30.02
2023-04-15T06:21:11.869Z,29.77
2023-04-15T06:23:41.310Z,29.44
2023-04-15T06:26:09.781Z,29.60
2023-04-15T06:28:38.323Z,29.76
2023-04-15T06:31:06.710Z,33.24
2023-04-15T06:33:35.233Z,31.55
2023-04-15T06:36:03.905Z,31.43
2023-04-15T06:38:32.354Z,30.67
2023-04-15T06:41:01.039Z,31.46
2023-04-15T06:43:29.867Z,35.05
2023-04-15T06:45:58.391Z,32.46
2023-04-15T06:48:27.562Z,31.78
2023-04-15T06:50:56.313Z,30.71
2023-04-15T06:53:28.017Z,30.52
2023-04-15T06:55:56.658Z,32.13
2023-04-15T06:58:25.422Z,31.78
2023-04-15T07:00:53.912Z,34.69
2023-04-15T07:03:22.470Z,33.33
2023-04-15T07:05:50.954Z,33.44
2023-04-15T07:08:20.491Z,32.98
2023-04-15T07:10:49.064Z,36.00
2023-04-15T07:13:17.653Z,33.55
2023-04-15T07:15:46.425Z,34.18
2023-04-15T07:18:14.890Z,35.88
2023-04-15T07:20:43.852Z,33.22
2023-04-15T07:23:12.301Z,34.02
2023-04-15T07:25:41.049Z,31.96
2023-04-15T07:28:09.553Z,32.08
2023-04-15T07:30:38.449Z,32.41
2023-04-15T07:33:07.018Z,32.76
2023-04-15T07:35:35.579Z,33.73
2023-04-15T07:38:04.042Z,30.24
2023-04-15T07:40:32.593Z,31.07
2023-04-15T07:43:01.516Z,32.43
2023-04-15T07:45:30.120Z,34.62
2023-04-15T07:47:58.749Z,35.60
2023-04-15T07:50:27.442Z,32.31
2023-04-15T07:52:55.990Z,30.92
2023-04-15T07:55:25.391Z,31.74
2023-04-15T07:57:54.588Z,31.18
2023-04-15T08:00:23.664Z,30.24
2023-04-15T08:02:53.756Z,30.50
2023-04-15T08:05:22.635Z,28.34
2023-04-15T08:07:51.824Z,30.05
2023-04-15T08:10:20.621Z,29.49
2023-04-15T08:12:49.599Z,32.09
2023-04-15T08:15:18.379Z,30.30
2023-04-15T08:17:47.096Z,30.81
2023-04-15T08:20:15.665Z,30.88
2023-04-15T08:22:44.179Z,29.13
2023-04-15T08:25:12.990Z,29.01
2023-04-15T08:27:41.400Z,30.20
2023-04-15T08:30:10.617Z,30.34
2023-04-15T08:32:39.103Z,30.05
2023-04-15T08:35:08.055Z,30.88
2023-04-15T08:37:36.561Z,30.71
2023-04-15T08:40:05.587Z,30.15
2023-04-15T08:42:39.631Z,29.79
2023-04-15T08:45:11.104Z,31.03
2023-04-15T08:47:40.534Z,30.45
2023-04-15T08:50:10.758Z,32.27
2023-04-15T08:52:40.019Z,30.07
2023-04-15T08:55:09.787Z,31.76
2023-04-15T08:57:38.356Z,30.86
2023-04-15T09:00:07.519Z,29.55
2023-04-15T09:02:37.493Z,30.42
2023-04-15T09:05:06.953Z,29.55
2023-04-15T09:07:36.602Z,27.98
2023-04-15T09:10:05.722Z,28.68
2023-04-15T09:12:38.120Z,28.81
2023-04-15T09:15:08.926Z,27.27
2023-04-15T09:17:43.083Z,26.58
2023-04-15T09:20:13.887Z,28.67
2023-04-15T09:22:43.651Z,27.51
2023-04-15T09:25:15.010Z,29.14
2023-04-15T09:27:53.386Z,27.33
2023-04-15T09:30:22.214Z,27.97
2023-04-15T09:32:52.099Z,26.59
2023-04-15T09:35:22.353Z,26.52
2023-04-15T09:37:51.435Z,25.78
2023-04-15T09:40:39.076Z,28.21
2023-04-15T09:43:09.650Z,25.90
2023-04-15T09:45:38.413Z,25.34
2023-04-15T09:48:26.857Z,27.82
2023-04-15T09:50:58.678Z,27.65
2023-04-15T09:53:28.446Z,28.70
2023-04-15T09:56:03.237Z,28.77
2023-04-15T09:58:33.793Z,28.65
2023-04-15T10:01:05.336Z,27.81
2023-04-15T10:03:36.854Z,26.57
2023-04-15T10:06:05.794Z,25.68
2023-04-15T10:08:35.080Z,27.29
2023-04-15T10:11:04.977Z,25.80
2023-04-15T10:13:35.130Z,25.97
2023-04-15T10:16:15.184Z,25.99
2023-04-15T10:18:47.921Z,25.73
2023-04-15T10:21:18.804Z,27.58
2023-04-15T10:23:47.784Z,25.68
2023-04-15T10:26:17.812Z,24.29
2023-04-15T10:28:48.214Z,25.42
2023-04-15T10:31:18.487Z,25.51
2023-04-15T10:33:48.837Z,25.17
2023-04-15T10:36:19.536Z,25.27
2023-04-15T10:38:48.078Z,24.99
2023-04-15T10:41:21.175Z,25.21
2023-04-15T10:44:01.228Z,25.06
2023-04-15T10:46:37.908Z,24.98
2023-04-15T10:49:11.093Z,23.35
2023-04-15T10:51:42.795Z,25.50
2023-04-15T10:54:16.649Z,24.58
2023-04-15T10:56:45.684Z,26.65
2023-04-15T10:59:16.415Z,26.66
2023-04-15T11:02:02.123Z,24.60
2023-04-15T11:05:00.771Z,24.41
2023-04-15T11:07:44.140Z,25.06
2023-04-15T11:10:18.751Z,26.00
2023-04-15T11:12:51.843Z,26.11
2023-04-15T11:15:32.499Z,25.00
2023-04-15T11:18:17.239Z,24.56
2023-04-15T11:20:54.484Z,24.21
2023-04-15T11:23:46.674Z,25.07
2023-04-15T11:26:15.525Z,24.76
2023-04-15T11:28:45.300Z,23.37
2023-04-15T11:31:17.623Z,26.23
2023-04-15T11:33:59.294Z,23.82
2023-04-15T11:36:30.135Z,25.78
2023-04-15T11:38:59.921Z,23.98
2023-04-15T11:41:28.590Z,24.46
2023-04-15T11:43:57.270Z,25.72
2023-04-15T11:46:31.426Z,26.46
2023-04-15T11:49:00.317Z,23.86
2023-04-15T11:51:33.576Z,23.57
2023-04-15T11:54:02.637Z,25.66
2023-04-15T11:56:31.962Z,24.61
2023-04-15T11:59:00.398Z,24.32
2023-04-15T12:01:43.856Z,23.14
2023-04-15T12:04:25.157Z,24.59
2023-04-15T12:06:54.553Z,25.74
2023-04-15T12:09:23.025Z,24.69
2023-04-15T12:11:55.328Z,25.91
2023-04-15T12:14:28.881Z,27.15
2023-04-15T12:17:00.520Z,25.45
2023-04-15T12:19:35.298Z,25.44
2023-04-15T12:22:06.633Z,23.89
2023-04-15T12:24:37.861Z,26.09
2023-04-15T12:27:08.574Z,25.63
2023-04-15T12:29:39.174Z,25.99
2023-04-15T12:32:14.668Z,25.21
2023-04-15T12:34:54.493Z,26.62
2023-04-15T12:37:23.088Z,24.55
2023-04-15T12:39:52.338Z,24.04
2023-04-15T12:42:22.481Z,25.77
2023-04-15T12:44:50.994Z,26.43
2023-04-15T12:47:19.555Z,25.01
2023-04-15T12:49:49.589Z,24.91
2023-04-15T12:52:18.368Z,25.26
2023-04-15T12:54:46.905Z,23.52
2023-04-15T12:57:15.435Z,26.09
2023-04-15T12:59:43.847Z,24.52
2023-04-15T13:02:12.400Z,23.60
2023-04-15T13:04:41.023Z,25.06
2023-04-15T13:07:09.621Z,26.06
2023-04-15T13:09:38.122Z,24.51
2023-04-15T13:12:06.542Z,25.68
2023-04-15T13:14:35.010Z,24.16
2023-04-15T13:17:08.875Z,25.97
2023-04-15T13:19:37.623Z,26.34
2023-04-15T13:22:07.026Z,24.06
2023-04-15T13:24:35.560Z,24.56
2023-04-15T13:27:04.358Z,24.17
2023-04-15T13:29:32.753Z,24.36
2023-04-15T13:32:01.669Z,23.73
2023-04-15T13:34:30.170Z,24.87
2023-04-15T13:36:58.723Z,25.15
2023-04-15T13:39:27.299Z,25.22
2023-04-15T13:41:56.036Z,24.35
2023-04-15T13:44:24.499Z,23.47
2023-04-15T13:46:53.049Z,23.38
2023-04-15T13:49:21.566Z,24.10
2023-04-15T13:51:51.189Z,25.08
2023-04-15T13:54:19.636Z,24.25
2023-04-15T13:56:48.656Z,23.86
2023-04-15T13:59:17.111Z,25.20
2023-04-15T14:01:45.722Z,26.06
2023-04-15T14:04:14.448Z,24.49
2023-04-15T14:06:43.370Z,24.17
2023-04-15T14:09:11.987Z,25.45
2023-04-15T14:11:40.507Z,26.37
2023-04-15T14:14:08.942Z,26.35
2023-04-15T14:16:37.433Z,26.42
2023-04-15T14:19:08.160Z,26.40
2023-04-15T14:21:36.926Z,24.99
2023-04-15T14:24:05.870Z,26.48
2023-04-15T14:26:34.399Z,28.84
2023-04-15T14:29:02.983Z,25.70
2023-04-15T14:31:31.641Z,24.49
2023-04-15T14:34:00.215Z,24.94
2023-04-15T14:36:28.751Z,23.95
2023-04-15T14:38:57.309Z,26.12
2023-04-15T14:41:26.321Z,25.28
2023-04-15T14:43:55.004Z,25.41
2023-04-15T14:46:23.576Z,24.92
2023-04-15T14:48:52.639Z,26.05
2023-04-15T14:51:21.229Z,27.37
2023-04-15T14:53:49.633Z,24.91
2023-04-15T14:56:18.337Z,25.11
2023-04-15T14:58:46.896Z,24.26
2023-04-15T15:01:15.813Z,26.92
2023-04-15T15:03:44.546Z,25.89
2023-04-15T15:06:13.468Z,26.19
2023-04-15T15:08:41.947Z,24.41
2023-04-15T15:11:10.530Z,24.83
2023-04-15T15:13:39.003Z,26.25
2023-04-15T15:16:07.803Z,24.93
2023-04-15T15:18:36.599Z,26.14
2023-04-15T15:21:05.427Z,27.33
2023-04-15T15:23:33.877Z,27.86
2023-04-15T15:26:02.412Z,25.25
2023-04-15T15:28:30.949Z,24.92
2023-04-15T15:30:59.493Z,26.33
2023-04-15T15:33:29.981Z,25.87
2023-04-15T15:35:59.275Z,27.04
2023-04-15T15:38:28.212Z,27.46
2023-04-15T15:40:56.654Z,26.29
2023-04-15T15:43:25.347Z,27.33
2023-04-15T15:45:55.577Z,28.82
2023-04-15T15:48:25.727Z,29.97
2023-04-15T15:50:54.351Z,29.14
2023-04-15T15:53:24.278Z,27.58
2023-04-15T15:55:53.876Z,28.10
2023-04-15T15:58:22.613Z,28.58
2023-04-15T16:00:51.221Z,27.00
2023-04-15T16:03:20.060Z,29.08
2023-04-15T16:05:48.732Z,29.14
2023-04-15T16:08:17.321Z,27.62
2023-04-15T16:10:45.882Z,28.38
2023-04-15T16:13:14.470Z,29.08
2023-04-15T16:15:42.978Z,29.08
2023-04-15T16:18:14.136Z,28.56
2023-04-15T16:20:42.751Z,28.68
2023-04-15T16:23:16.190Z,31.63
2023-04-15T16:25:44.807Z,29.17
2023-04-15T16:28:25.819Z,27.94
2023-04-15T16:30:55.486Z,28.57
2023-04-15T16:33:24.193Z,28.36
2023-04-15T16:35:52.793Z,30.34
2023-04-15T16:38:21.292Z,30.19
2023-04-15T16:40:50.018Z,29.40
2023-04-15T16:43:18.626Z,31.14
2023-04-15T16:45:50.887Z,30.85
2023-04-15T16:48:21.106Z,27.81
2023-04-15T16:50:49.723Z,29.82
2023-04-15T16:53:18.330Z,30.92
2023-04-15T16:55:46.781Z,30.35
2023-04-15T16:58:15.496Z,30.26
2023-04-15T17:00:44.223Z,30.43
2023-04-15T17:03:12.948Z,30.87
2023-04-15T17:05:42.413Z,30.06
2023-04-15T17:08:10.984Z,32.97
2023-04-15T17:10:39.610Z,33.00
2023-04-15T17:13:08.109Z,32.26
2023-04-15T17:15:36.625Z,32.70
2023-04-15T17:18:05.386Z,31.71
2023-04-15T17:20:34.366Z,34.03
2023-04-15T17:23:03.960Z,30.34
2023-04-15T17:25:32.506Z,32.79
2023-04-15T17:28:01.089Z,30.07
2023-04-15T17:30:29.686Z,29.97
2023-04-15T17:32:58.419Z,30.84
2023-04-15T17:35:26.938Z,30.79
2023-04-15T17:37:55.486Z,33.30
2023-04-15T17:40:23.957Z,32.78
2023-04-15T17:42:52.472Z,31.20
2023-04-15T17:45:21.188Z,31.80
2023-04-15T17:47:49.645Z,31.96
2023-04-15T17:50:18.199Z,32.81
2023-04-15T17:52:48.335Z,31.21
2023-04-15T17:55:16.985Z,30.95
2023-04-15T17:57:46.932Z,28.61
2023-04-15T18:00:16.722Z,31.65
2023-04-15T18:02:45.459Z,30.94
2023-04-15T18:05:14.684Z,29.86
2023-04-15T18:07:44.560Z,32.33
2023-04-15T18:10:13.069Z,32.63
2023-04-15T18:12:41.513Z,33.26
2023-04-15T18:15:11.757Z,30.75
2023-04-15T18:17:40.238Z,33.94
2023-04-15T18:20:08.929Z,31.77
2023-04-15T18:22:37.415Z,30.71
2023-04-15T18:25:06.588Z,33.19
2023-04-15T18:27:39.323Z,31.40
2023-04-15T18:30:09.635Z,31.55
2023-04-15T18:32:38.711Z,33.14
2023-04-15T18:35:07.600Z,33.03
2023-04-15T18:37:36.091Z,32.84
2023-04-15T18:40:04.961Z,33.49
2023-04-15T18:42:33.528Z,33.03
2023-04-15T18:45:02.088Z,32.38
2023-04-15T18:47:30.872Z,32.52
2023-04-15T18:49:59.478Z,34.06
2023-04-15T18:52:28.010Z,32.22
2023-04-15T18:54:56.447Z,33.41
2023-04-15T18:57:31.750Z,32.70
2023-04-15T19:00:08.162Z,31.84
2023-04-15T19:02:36.969Z,33.18
2023-04-15T19:05:06.183Z,33.57
2023-04-15T19:07:35.604Z,33.52
2023-04-15T19:10:07.958Z,32.43
2023-04-15T19:12:40.340Z,34.04
2023-04-15T19:15:09.034Z,30.94
2023-04-15T19:17:37.586Z,31.14
2023-04-15T19:20:06.708Z,32.30
2023-04-15T19:22:36.639Z,31.58
2023-04-15T19:25:06.017Z,34.08
2023-04-15T19:27:34.934Z,34.42
2023-04-15T19:30:04.462Z,33.16
2023-04-15T19:32:33.019Z,31.20
2023-04-15T19:35:01.558Z,31.85
2023-04-15T19:37:30.118Z,37.30
2023-04-15T19:39:58.825Z,31.85
2023-04-15T19:42:27.343Z,34.51
2023-04-15T19:44:55.874Z,34.81
2023-04-15T19:47:24.489Z,32.98
2023-04-15T19:49:52.947Z,35.80
2023-04-15T19:52:22.418Z,35.44
2023-04-15T19:54:50.934Z,34.59
2023-04-15T19:57:19.462Z,33.28
2023-04-15T19:59:47.838Z,35.97
2023-04-15T20:02:17.140Z,34.49
2023-04-15T20:04:45.844Z,32.61
2023-04-15T20:07:14.341Z,34.42
2023-04-15T20:09:44.030Z,34.87
2023-04-15T20:12:51.185Z,35.83
2023-04-15T20:15:00.854Z,34.29
2023-04-15T20:17:33.517Z,35.50
2023-04-15T20:20:06.431Z,35.91
2023-04-15T20:22:34.920Z,38.26
2023-04-15T20:25:04.873Z,33.36
2023-04-15T20:27:33.349Z,35.58
2023-04-15T20:30:03.319Z,33.56
2023-04-15T20:32:36.256Z,34.58
2023-04-15T20:35:05.901Z,37.10
2023-04-15T20:37:34.576Z,34.31
2023-04-15T20:40:03.528Z,34.88
2023-04-15T20:42:34.358Z,32.15
2023-04-15T20:45:04.437Z,35.96
2023-04-15T20:47:32.853Z,35.82
2023-04-15T20:50:01.537Z,34.08
2023-04-15T20:52:30.444Z,35.57
2023-04-15T20:54:58.939Z,34.66
2023-04-15T20:57:30.086Z,35.12
2023-04-15T21:02:27.771Z,37.60
2023-04-15T21:04:59.076Z,38.19
2023-04-15T21:07:27.638Z,38.71
2023-04-15T21:09:56.180Z,37.90
2023-04-15T21:12:24.689Z,35.05
2023-04-15T21:14:53.176Z,37.46
2023-04-15T21:17:21.746Z,36.05
2023-04-15T21:19:50.107Z,35.62
2023-04-15T21:22:18.540Z,36.08
2023-04-15T21:24:46.949Z,34.29
2023-04-15T21:27:15.790Z,36.13
2023-04-15T21:29:44.353Z,38.50
2023-04-15T21:32:12.961Z,40.89
2023-04-15T21:34:41.482Z,35.42
2023-04-15T21:37:09.997Z,36.81
2023-04-15T21:39:38.446Z,36.65
2023-04-15T21:42:06.958Z,36.00
2023-04-15T21:44:35.688Z,36.30
2023-04-15T21:47:04.201Z,35.45
2023-04-15T21:49:33.014Z,35.42
2023-04-15T21:52:01.612Z,36.29
2023-04-15T21:54:31.097Z,37.22
2023-04-15T21:56:59.572Z,37.06
2023-04-15T21:59:28.288Z,38.79
2023-04-15T22:01:56.883Z,40.48
2023-04-15T22:04:26.159Z,39.40
2023-04-15T22:06:58.173Z,40.10
2023-04-15T22:09:26.791Z,38.22
2023-04-15T22:11:55.349Z,38.89
2023-04-15T22:14:24.166Z,38.23
2023-04-15T22:16:52.746Z,39.21
2023-04-15T22:19:21.200Z,39.10
2023-04-15T22:21:50.291Z,39.13
2023-04-15T22:24:39.328Z,39.38
2023-04-15T22:27:07.320Z,39.91
2023-04-15T22:29:35.728Z,39.44
2023-04-15T22:32:04.303Z,40.15
2023-04-15T22:34:32.815Z,39.92
2023-04-15T22:37:01.360Z,39.96
2023-04-15T22:39:29.777Z,40.18
2023-04-15T22:41:58.395Z,38.07
2023-04-15T22:44:27.398Z,36.36
2023-04-15T22:46:56.199Z,38.88
2023-04-15T22:49:26.410Z,36.47
2023-04-15T22:51:54.850Z,35.99
2023-04-15T22:54:24.527Z,37.22
2023-04-15T22:56:53.361Z,36.48
2023-04-15T22:59:21.797Z,37.73
2023-04-15T23:01:50.577Z,39.96
2023-04-15T23:04:26.986Z,37.68
2023-04-15T23:06:56.804Z,38.41
2023-04-15T23:09:25.331Z,39.55
2023-04-15T23:11:54.731Z,38.67
2023-04-15T23:14:23.372Z,38.53
2023-04-15T23:16:51.977Z,39.19
2023-04-15T23:19:20.476Z,38.25
2023-04-15T23:21:49.223Z,36.21
2023-04-15T23:24:17.674Z,36.73
2023-04-15T23:26:46.122Z,39.56
2023-04-15T23:29:14.499Z,37.35
2023-04-15T23:31:43.194Z,38.69
2023-04-15T23:34:11.720Z,37.51
2023-04-15T23:36:40.625Z,39.20
2023-04-15T23:39:09.149Z,39.00
2023-04-15T23:41:38.105Z,39.72
2023-04-15T23:44:07.121Z,37.97
2023-04-15T23:46:35.698Z,38.99
2023-04-15T23:49:04.179Z,38.04
2023-04-15T23:51:32.593Z,38.27
2023-04-15T23:54:01.217Z,39.15
2023-04-15T23:56:29.698Z,40.95
2023-04-15T23:58:58.180Z,40.84
